sensor_id;sensor_type;location;lat;lon;timestamp;temperature;humidity
31733;DHT22;18312;51.486;7.144;2022-11-15T00:00:48;10.60;99.90
31733;DHT22;18312;51.486;7.144;2022-11-15T00:03:15;10.60;99.90
31733;DHT22;18312;51.486;7.144;2022-11-15T00:05:42;10.70;99.90
31733;DHT22;18312;51.486;7.144;2022-11-15T00:08:09;10.70;99.90
31733;DHT22;18312;51.486;7.144;2022-11-15T00:10:36;10.70;99.90
31733;DHT22;18312;51.486;7.144;2022-11-15T00:13:05;10.70;99.90
31733;DHT22;18312;51.486;7.144;2022-11-15T00:15:35;10.70;99.90
31733;DHT22;18312;51.486;7.144;2022-11-15T00:18:03;10.90;99.90
31733;DHT22;18312;51.486;7.144;2022-11-15T00:20:29;10.90;99.90
31733;DHT22;18312;51.486;7.144;2022-11-15T00:22:56;10.90;99.90
31733;DHT22;18312;51.486;7.144;2022-11-15T00:25:23;11.00;99.90
31733;DHT22;18312;51.486;7.144;2022-11-15T00:27:50;11.00;99.90
31733;DHT22;18312;51.486;7.144;2022-11-15T00:30:18;11.00;99.90
31733;DHT22;18312;51.486;7.144;2022-11-15T00:32:46;11.10;99.90
31733;DHT22;18312;51.486;7.144;2022-11-15T00:35:13;11.10;99.90
31733;DHT22;18312;51.486;7.144;2022-11-15T00:37:40;11.20;99.90
31733;DHT22;18312;51.486;7.144;2022-11-15T00:40:08;11.20;99.90
31733;DHT22;18312;51.486;7.144;2022-11-15T00:42:35;11.30;99.90
31733;DHT22;18312;51.486;7.144;2022-11-15T00:45:02;11.40;99.90
31733;DHT22;18312;51.486;7.144;2022-11-15T00:47:28;11.40;99.90
31733;DHT22;18312;51.486;7.144;2022-11-15T00:49:57;11.50;99.90
31733;DHT22;18312;51.486;7.144;2022-11-15T00:52:24;11.50;99.90
31733;DHT22;18312;51.486;7.144;2022-11-15T00:54:50;11.40;99.90
31733;DHT22;18312;51.486;7.144;2022-11-15T00:57:17;11.50;99.90
31733;DHT22;18312;51.486;7.144;2022-11-15T00:59:44;11.60;99.90
31733;DHT22;18312;51.486;7.144;2022-11-15T01:02:10;11.60;99.90
31733;DHT22;18312;51.486;7.144;2022-11-15T01:04:37;11.70;99.90
31733;DHT22;18312;51.486;7.144;2022-11-15T01:07:05;11.80;99.90
31733;DHT22;18312;51.486;7.144;2022-11-15T01:09:32;11.80;99.90
31733;DHT22;18312;51.486;7.144;2022-11-15T01:11:59;11.80;99.90
31733;DHT22;18312;51.486;7.144;2022-11-15T01:14:26;11.90;99.90
31733;DHT22;18312;51.486;7.144;2022-11-15T01:16:53;11.90;99.90
31733;DHT22;18312;51.486;7.144;2022-11-15T01:19:19;12.00;99.90
31733;DHT22;18312;51.486;7.144;2022-11-15T01:21:48;12.00;99.90
31733;DHT22;18312;51.486;7.144;2022-11-15T01:24:16;12.10;99.90
31733;DHT22;18312;51.486;7.144;2022-11-15T01:26:43;12.10;99.90
31733;DHT22;18312;51.486;7.144;2022-11-15T01:29:10;12.10;99.90
31733;DHT22;18312;51.486;7.144;2022-11-15T01:31:36;12.30;99.90
31733;DHT22;18312;51.486;7.144;2022-11-15T01:34:03;12.30;99.90
31733;DHT22;18312;51.486;7.144;2022-11-15T01:36:30;12.30;99.90
31733;DHT22;18312;51.486;7.144;2022-11-15T01:38:58;12.30;99.90
31733;DHT22;18312;51.486;7.144;2022-11-15T01:41:46;12.30;99.90
31733;DHT22;18312;51.486;7.144;2022-11-15T01:44:41;12.30;99.90
31733;DHT22;18312;51.486;7.144;2022-11-15T01:47:11;12.30;99.90
31733;DHT22;18312;51.486;7.144;2022-11-15T01:49:45;12.20;99.90
31733;DHT22;18312;51.486;7.144;2022-11-15T01:52:18;12.10;99.90
31733;DHT22;18312;51.486;7.144;2022-11-15T01:54:46;12.10;99.90
31733;DHT22;18312;51.486;7.144;2022-11-15T01:57:15;12.10;99.90
31733;DHT22;18312;51.486;7.144;2022-11-15T01:59:43;12.20;99.90
31733;DHT22;18312;51.486;7.144;2022-11-15T02:02:10;12.20;99.90
31733;DHT22;18312;51.486;7.144;2022-11-15T02:04:40;12.20;99.90
31733;DHT22;18312;51.486;7.144;2022-11-15T02:07:07;12.20;99.90
31733;DHT22;18312;51.486;7.144;2022-11-15T02:09:36;12.30;99.90
31733;DHT22;18312;51.486;7.144;2022-11-15T02:12:03;12.30;99.90
31733;DHT22;18312;51.486;7.144;2022-11-15T02:14:32;12.30;99.90
31733;DHT22;18312;51.486;7.144;2022-11-15T02:17:06;12.20;99.90
31733;DHT22;18312;51.486;7.144;2022-11-15T02:19:59;12.20;99.90
31733;DHT22;18312;51.486;7.144;2022-11-15T02:22:37;12.20;99.90
31733;DHT22;18312;51.486;7.144;2022-11-15T02:25:22;12.30;99.90
31733;DHT22;18312;51.486;7.144;2022-11-15T02:28:16;12.30;99.90
31733;DHT22;18312;51.486;7.144;2022-11-15T02:30:54;12.30;99.90
31733;DHT22;18312;51.486;7.144;2022-11-15T02:33:31;12.30;99.90
31733;DHT22;18312;51.486;7.144;2022-11-15T02:36:02;12.40;99.90
31733;DHT22;18312;51.486;7.144;2022-11-15T02:38:39;12.40;99.90
31733;DHT22;18312;51.486;7.144;2022-11-15T02:41:11;12.40;99.90
31733;DHT22;18312;51.486;7.144;2022-11-15T02:43:45;12.40;99.90
31733;DHT22;18312;51.486;7.144;2022-11-15T02:46:31;12.30;99.90
31733;DHT22;18312;51.486;7.144;2022-11-15T02:49:17;12.30;99.90
31733;DHT22;18312;51.486;7.144;2022-11-15T02:51:46;12.30;99.90
31733;DHT22;18312;51.486;7.144;2022-11-15T02:54:17;12.20;99.90
31733;DHT22;18312;51.486;7.144;2022-11-15T02:56:46;12.10;99.90
31733;DHT22;18312;51.486;7.144;2022-11-15T02:59:45;12.10;99.90
31733;DHT22;18312;51.486;7.144;2022-11-15T03:02:31;12.00;99.90
31733;DHT22;18312;51.486;7.144;2022-11-15T03:05:07;12.10;99.90
31733;DHT22;18312;51.486;7.144;2022-11-15T03:07:42;12.10;99.90
31733;DHT22;18312;51.486;7.144;2022-11-15T03:10:14;12.10;99.90
31733;DHT22;18312;51.486;7.144;2022-11-15T03:12:48;12.20;99.90
31733;DHT22;18312;51.486;7.144;2022-11-15T03:15:21;12.20;99.90
31733;DHT22;18312;51.486;7.144;2022-11-15T03:17:53;12.30;99.90
31733;DHT22;18312;51.486;7.144;2022-11-15T03:20:22;12.30;99.90
31733;DHT22;18312;51.486;7.144;2022-11-15T03:22:51;12.30;99.90
31733;DHT22;18312;51.486;7.144;2022-11-15T03:25:22;12.30;99.90
31733;DHT22;18312;51.486;7.144;2022-11-15T03:27:52;12.30;99.90
31733;DHT22;18312;51.486;7.144;2022-11-15T03:30:20;12.30;99.90
31733;DHT22;18312;51.486;7.144;2022-11-15T03:32:48;12.30;99.90
31733;DHT22;18312;51.486;7.144;2022-11-15T03:35:21;12.40;99.90
31733;DHT22;18312;51.486;7.144;2022-11-15T03:37:51;12.40;99.90
31733;DHT22;18312;51.486;7.144;2022-11-15T03:40:24;12.40;99.90
31733;DHT22;18312;51.486;7.144;2022-11-15T03:42:58;12.40;99.90
31733;DHT22;18312;51.486;7.144;2022-11-15T03:45:28;12.40;99.90
31733;DHT22;18312;51.486;7.144;2022-11-15T03:48:00;12.40;99.90
31733;DHT22;18312;51.486;7.144;2022-11-15T03:50:30;12.40;99.90
31733;DHT22;18312;51.486;7.144;2022-11-15T03:52:57;12.40;99.90
31733;DHT22;18312;51.486;7.144;2022-11-15T03:55:25;12.40;99.90
31733;DHT22;18312;51.486;7.144;2022-11-15T03:57:54;12.50;99.90
31733;DHT22;18312;51.486;7.144;2022-11-15T04:00:22;12.40;99.90
31733;DHT22;18312;51.486;7.144;2022-11-15T04:02:49;12.50;99.90
31733;DHT22;18312;51.486;7.144;2022-11-15T04:05:16;12.40;99.90
31733;DHT22;18312;51.486;7.144;2022-11-15T04:07:44;12.40;99.90
31733;DHT22;18312;51.486;7.144;2022-11-15T04:10:11;12.40;99.90
31733;DHT22;18312;51.486;7.144;2022-11-15T04:12:40;12.40;99.90
31733;DHT22;18312;51.486;7.144;2022-11-15T04:15:10;12.50;99.90
31733;DHT22;18312;51.486;7.144;2022-11-15T04:17:40;12.50;99.90
31733;DHT22;18312;51.486;7.144;2022-11-15T04:20:09;12.50;99.90
31733;DHT22;18312;51.486;7.144;2022-11-15T04:22:57;12.50;99.90
31733;DHT22;18312;51.486;7.144;2022-11-15T04:25:42;12.50;99.90
31733;DHT22;18312;51.486;7.144;2022-11-15T04:28:09;12.50;99.90
31733;DHT22;18312;51.486;7.144;2022-11-15T04:30:37;12.50;99.90
31733;DHT22;18312;51.486;7.144;2022-11-15T04:33:04;12.50;99.90
31733;DHT22;18312;51.486;7.144;2022-11-15T04:35:31;12.60;99.90
31733;DHT22;18312;51.486;7.144;2022-11-15T04:37:59;12.60;99.90
31733;DHT22;18312;51.486;7.144;2022-11-15T04:40:25;12.50;99.90
31733;DHT22;18312;51.486;7.144;2022-11-15T04:42:52;12.60;99.90
31733;DHT22;18312;51.486;7.144;2022-11-15T04:45:19;12.60;99.90
31733;DHT22;18312;51.486;7.144;2022-11-15T04:47:46;12.60;99.90
31733;DHT22;18312;51.486;7.144;2022-11-15T04:50:14;12.60;99.90
31733;DHT22;18312;51.486;7.144;2022-11-15T04:52:42;12.60;99.90
31733;DHT22;18312;51.486;7.144;2022-11-15T04:55:10;12.70;99.90
31733;DHT22;18312;51.486;7.144;2022-11-15T04:57:37;12.70;99.90
31733;DHT22;18312;51.486;7.144;2022-11-15T05:00:06;12.70;99.90
31733;DHT22;18312;51.486;7.144;2022-11-15T05:02:34;12.70;99.90
31733;DHT22;18312;51.486;7.144;2022-11-15T05:05:19;12.70;99.90
31733;DHT22;18312;51.486;7.144;2022-11-15T05:07:46;12.70;99.90
31733;DHT22;18312;51.486;7.144;2022-11-15T05:10:14;12.70;99.90
31733;DHT22;18312;51.486;7.144;2022-11-15T05:12:41;12.80;99.90
31733;DHT22;18312;51.486;7.144;2022-11-15T05:15:08;12.70;99.90
31733;DHT22;18312;51.486;7.144;2022-11-15T05:17:35;12.70;99.90
31733;DHT22;18312;51.486;7.144;2022-11-15T05:20:01;12.70;99.90
31733;DHT22;18312;51.486;7.144;2022-11-15T05:22:28;12.70;99.90
31733;DHT22;18312;51.486;7.144;2022-11-15T05:24:55;12.70;99.90
31733;DHT22;18312;51.486;7.144;2022-11-15T05:27:23;12.70;99.90
31733;DHT22;18312;51.486;7.144;2022-11-15T05:29:50;12.70;99.90
31733;DHT22;18312;51.486;7.144;2022-11-15T05:32:17;12.60;99.90
31733;DHT22;18312;51.486;7.144;2022-11-15T05:34:44;12.70;99.90
31733;DHT22;18312;51.486;7.144;2022-11-15T05:37:11;12.70;99.90
31733;DHT22;18312;51.486;7.144;2022-11-15T05:39:38;12.70;99.90
31733;DHT22;18312;51.486;7.144;2022-11-15T05:42:07;12.70;99.90
31733;DHT22;18312;51.486;7.144;2022-11-15T05:44:38;12.70;99.90
31733;DHT22;18312;51.486;7.144;2022-11-15T05:47:07;12.70;99.90
31733;DHT22;18312;51.486;7.144;2022-11-15T05:49:36;12.60;99.90
31733;DHT22;18312;51.486;7.144;2022-11-15T05:52:05;12.50;99.90
31733;DHT22;18312;51.486;7.144;2022-11-15T05:54:34;12.50;99.90
31733;DHT22;18312;51.486;7.144;2022-11-15T05:57:02;12.40;99.90
31733;DHT22;18312;51.486;7.144;2022-11-15T05:59:30;12.40;99.90
31733;DHT22;18312;51.486;7.144;2022-11-15T06:01:58;12.30;99.90
31733;DHT22;18312;51.486;7.144;2022-11-15T06:04:25;12.30;99.90
31733;DHT22;18312;51.486;7.144;2022-11-15T06:06:52;12.30;99.90
31733;DHT22;18312;51.486;7.144;2022-11-15T06:09:18;12.40;99.90
31733;DHT22;18312;51.486;7.144;2022-11-15T06:11:45;12.40;99.90
31733;DHT22;18312;51.486;7.144;2022-11-15T06:14:13;12.30;99.90
31733;DHT22;18312;51.486;7.144;2022-11-15T06:16:39;12.30;99.90
31733;DHT22;18312;51.486;7.144;2022-11-15T06:19:08;12.30;99.90
31733;DHT22;18312;51.486;7.144;2022-11-15T06:21:34;12.30;99.90
31733;DHT22;18312;51.486;7.144;2022-11-15T06:24:01;12.30;99.90
31733;DHT22;18312;51.486;7.144;2022-11-15T06:26:28;12.30;99.90
31733;DHT22;18312;51.486;7.144;2022-11-15T06:28:54;12.30;99.90
31733;DHT22;18312;51.486;7.144;2022-11-15T06:31:21;12.30;99.90
31733;DHT22;18312;51.486;7.144;2022-11-15T06:33:48;12.30;99.90
31733;DHT22;18312;51.486;7.144;2022-11-15T06:36:17;12.40;99.90
31733;DHT22;18312;51.486;7.144;2022-11-15T06:38:44;12.40;99.90
31733;DHT22;18312;51.486;7.144;2022-11-15T06:41:12;12.40;99.90
31733;DHT22;18312;51.486;7.144;2022-11-15T06:43:40;12.40;99.90
31733;DHT22;18312;51.486;7.144;2022-11-15T06:46:07;12.40;99.90
31733;DHT22;18312;51.486;7.144;2022-11-15T06:48:34;12.50;99.90
31733;DHT22;18312;51.486;7.144;2022-11-15T06:51:03;12.50;99.90
31733;DHT22;18312;51.486;7.144;2022-11-15T06:53:32;12.50;99.90
31733;DHT22;18312;51.486;7.144;2022-11-15T06:55:59;12.50;99.90
31733;DHT22;18312;51.486;7.144;2022-11-15T06:58:27;12.50;99.90
31733;DHT22;18312;51.486;7.144;2022-11-15T07:00:57;12.60;99.90
31733;DHT22;18312;51.486;7.144;2022-11-15T07:03:24;12.60;99.90
31733;DHT22;18312;51.486;7.144;2022-11-15T07:05:52;12.60;99.90
31733;DHT22;18312;51.486;7.144;2022-11-15T07:08:20;12.60;99.90
31733;DHT22;18312;51.486;7.144;2022-11-15T07:10:48;12.60;99.90
31733;DHT22;18312;51.486;7.144;2022-11-15T07:13:14;12.70;99.90
31733;DHT22;18312;51.486;7.144;2022-11-15T07:15:41;12.70;99.90
31733;DHT22;18312;51.486;7.144;2022-11-15T07:18:08;12.70;99.90
31733;DHT22;18312;51.486;7.144;2022-11-15T07:20:35;12.80;99.90
31733;DHT22;18312;51.486;7.144;2022-11-15T07:23:02;12.70;99.90
31733;DHT22;18312;51.486;7.144;2022-11-15T07:25:29;12.80;99.90
31733;DHT22;18312;51.486;7.144;2022-11-15T07:27:58;12.80;99.90
31733;DHT22;18312;51.486;7.144;2022-11-15T07:30:26;12.80;99.90
31733;DHT22;18312;51.486;7.144;2022-11-15T07:32:53;12.80;99.90
31733;DHT22;18312;51.486;7.144;2022-11-15T07:35:20;12.80;99.90
31733;DHT22;18312;51.486;7.144;2022-11-15T07:37:53;12.70;99.90
31733;DHT22;18312;51.486;7.144;2022-11-15T07:40:21;12.70;99.90
31733;DHT22;18312;51.486;7.144;2022-11-15T07:42:47;12.70;99.90
31733;DHT22;18312;51.486;7.144;2022-11-15T07:45:23;12.60;99.90
31733;DHT22;18312;51.486;7.144;2022-11-15T07:47:51;12.60;99.90
31733;DHT22;18312;51.486;7.144;2022-11-15T07:50:18;12.50;99.90
31733;DHT22;18312;51.486;7.144;2022-11-15T07:52:45;12.50;99.90
31733;DHT22;18312;51.486;7.144;2022-11-15T07:55:12;12.40;99.90
31733;DHT22;18312;51.486;7.144;2022-11-15T07:57:39;12.50;99.90
31733;DHT22;18312;51.486;7.144;2022-11-15T08:00:06;12.50;99.90
31733;DHT22;18312;51.486;7.144;2022-11-15T08:02:35;12.50;99.90
31733;DHT22;18312;51.486;7.144;2022-11-15T08:05:01;12.50;99.90
31733;DHT22;18312;51.486;7.144;2022-11-15T08:07:30;12.50;99.90
31733;DHT22;18312;51.486;7.144;2022-11-15T08:09:57;12.50;99.90
31733;DHT22;18312;51.486;7.144;2022-11-15T08:12:24;12.60;99.90
31733;DHT22;18312;51.486;7.144;2022-11-15T08:14:50;12.60;99.90
31733;DHT22;18312;51.486;7.144;2022-11-15T08:17:17;12.60;99.90
31733;DHT22;18312;51.486;7.144;2022-11-15T08:19:45;12.70;99.90
31733;DHT22;18312;51.486;7.144;2022-11-15T08:22:12;12.70;99.90
31733;DHT22;18312;51.486;7.144;2022-11-15T08:24:39;12.70;99.90
31733;DHT22;18312;51.486;7.144;2022-11-15T08:27:06;12.70;99.90
31733;DHT22;18312;51.486;7.144;2022-11-15T08:29:40;12.70;99.90
31733;DHT22;18312;51.486;7.144;2022-11-15T08:32:08;12.80;99.90
31733;DHT22;18312;51.486;7.144;2022-11-15T08:34:35;12.90;99.90
31733;DHT22;18312;51.486;7.144;2022-11-15T08:37:03;12.90;99.90
31733;DHT22;18312;51.486;7.144;2022-11-15T08:39:31;12.90;99.90
31733;DHT22;18312;51.486;7.144;2022-11-15T08:41:58;12.90;99.90
31733;DHT22;18312;51.486;7.144;2022-11-15T08:44:24;13.00;99.90
31733;DHT22;18312;51.486;7.144;2022-11-15T08:46:51;13.00;99.90
31733;DHT22;18312;51.486;7.144;2022-11-15T08:49:18;13.00;99.90
31733;DHT22;18312;51.486;7.144;2022-11-15T08:51:44;13.00;99.90
31733;DHT22;18312;51.486;7.144;2022-11-15T08:54:12;13.00;99.90
31733;DHT22;18312;51.486;7.144;2022-11-15T08:56:39;13.00;99.90
31733;DHT22;18312;51.486;7.144;2022-11-15T08:59:06;13.00;99.90
31733;DHT22;18312;51.486;7.144;2022-11-15T09:01:33;13.00;99.90
31733;DHT22;18312;51.486;7.144;2022-11-15T09:03:59;13.00;99.90
31733;DHT22;18312;51.486;7.144;2022-11-15T09:06:26;13.00;99.90
31733;DHT22;18312;51.486;7.144;2022-11-15T09:08:53;13.00;99.90
31733;DHT22;18312;51.486;7.144;2022-11-15T09:11:21;13.00;99.90
31733;DHT22;18312;51.486;7.144;2022-11-15T09:13:48;13.00;99.90
31733;DHT22;18312;51.486;7.144;2022-11-15T09:16:15;13.00;99.90
31733;DHT22;18312;51.486;7.144;2022-11-15T09:18:42;13.00;99.90
31733;DHT22;18312;51.486;7.144;2022-11-15T09:21:09;13.10;99.90
31733;DHT22;18312;51.486;7.144;2022-11-15T09:23:36;13.10;99.90
31733;DHT22;18312;51.486;7.144;2022-11-15T09:26:04;13.10;99.90
31733;DHT22;18312;51.486;7.144;2022-11-15T09:28:33;13.20;99.90
31733;DHT22;18312;51.486;7.144;2022-11-15T09:31:01;13.20;99.90
31733;DHT22;18312;51.486;7.144;2022-11-15T09:33:28;13.20;99.90
31733;DHT22;18312;51.486;7.144;2022-11-15T09:36:00;13.20;99.90
31733;DHT22;18312;51.486;7.144;2022-11-15T09:38:27;13.20;99.90
31733;DHT22;18312;51.486;7.144;2022-11-15T09:41:21;13.20;99.90
31733;DHT22;18312;51.486;7.144;2022-11-15T09:44:00;13.20;99.90
31733;DHT22;18312;51.486;7.144;2022-11-15T09:46:37;13.20;99.90
31733;DHT22;18312;51.486;7.144;2022-11-15T09:49:09;13.20;99.90
31733;DHT22;18312;51.486;7.144;2022-11-15T09:51:40;13.20;99.90
31733;DHT22;18312;51.486;7.144;2022-11-15T09:54:21;13.30;99.90
31733;DHT22;18312;51.486;7.144;2022-11-15T09:56:50;13.40;99.90
31733;DHT22;18312;51.486;7.144;2022-11-15T09:59:33;13.40;99.90
31733;DHT22;18312;51.486;7.144;2022-11-15T10:02:16;13.40;99.90
31733;DHT22;18312;51.486;7.144;2022-11-15T10:04:46;13.40;99.90
31733;DHT22;18312;51.486;7.144;2022-11-15T10:07:15;13.50;99.90
31733;DHT22;18312;51.486;7.144;2022-11-15T10:09:47;13.40;99.90
31733;DHT22;18312;51.486;7.144;2022-11-15T10:12:15;13.40;99.90
31733;DHT22;18312;51.486;7.144;2022-11-15T10:14:45;13.40;99.90
31733;DHT22;18312;51.486;7.144;2022-11-15T10:20:19;13.40;99.90
31733;DHT22;18312;51.486;7.144;2022-11-15T10:22:49;13.30;99.90
31733;DHT22;18312;51.486;7.144;2022-11-15T10:25:19;13.30;99.90
31733;DHT22;18312;51.486;7.144;2022-11-15T10:27:50;13.30;99.90
31733;DHT22;18312;51.486;7.144;2022-11-15T10:30:19;13.30;99.90
31733;DHT22;18312;51.486;7.144;2022-11-15T10:32:47;13.30;99.90
31733;DHT22;18312;51.486;7.144;2022-11-15T10:35:22;13.20;99.90
31733;DHT22;18312;51.486;7.144;2022-11-15T10:37:49;13.30;99.90
31733;DHT22;18312;51.486;7.144;2022-11-15T10:40:19;13.30;99.90
31733;DHT22;18312;51.486;7.144;2022-11-15T10:42:46;13.30;99.90
31733;DHT22;18312;51.486;7.144;2022-11-15T10:45:26;13.30;99.90
31733;DHT22;18312;51.486;7.144;2022-11-15T10:47:54;13.30;99.90
31733;DHT22;18312;51.486;7.144;2022-11-15T10:50:42;13.40;99.90
31733;DHT22;18312;51.486;7.144;2022-11-15T10:53:15;13.50;99.90
31733;DHT22;18312;51.486;7.144;2022-11-15T10:55:47;13.60;99.90
31733;DHT22;18312;51.486;7.144;2022-11-15T10:58:21;13.60;99.90
31733;DHT22;18312;51.486;7.144;2022-11-15T11:00:53;13.60;99.90
31733;DHT22;18312;51.486;7.144;2022-11-15T11:03:29;13.70;99.90
31733;DHT22;18312;51.486;7.144;2022-11-15T11:06:04;13.60;99.90
31733;DHT22;18312;51.486;7.144;2022-11-15T11:08:31;13.60;99.90
31733;DHT22;18312;51.486;7.144;2022-11-15T11:11:00;13.70;99.90
31733;DHT22;18312;51.486;7.144;2022-11-15T11:13:29;13.70;99.90
31733;DHT22;18312;51.486;7.144;2022-11-15T11:16:06;13.70;99.90
31733;DHT22;18312;51.486;7.144;2022-11-15T11:18:41;13.70;99.90
31733;DHT22;18312;51.486;7.144;2022-11-15T11:21:14;13.80;99.90
31733;DHT22;18312;51.486;7.144;2022-11-15T11:23:47;13.80;99.90
31733;DHT22;18312;51.486;7.144;2022-11-15T11:26:35;13.80;99.90
31733;DHT22;18312;51.486;7.144;2022-11-15T11:29:15;13.80;99.90
31733;DHT22;18312;51.486;7.144;2022-11-15T11:31:50;13.80;99.90
31733;DHT22;18312;51.486;7.144;2022-11-15T11:34:34;13.90;99.90
31733;DHT22;18312;51.486;7.144;2022-11-15T11:37:12;14.00;99.90
31733;DHT22;18312;51.486;7.144;2022-11-15T11:39:45;14.00;99.90
31733;DHT22;18312;51.486;7.144;2022-11-15T11:42:23;14.10;99.90
31733;DHT22;18312;51.486;7.144;2022-11-15T11:44:58;14.20;99.90
31733;DHT22;18312;51.486;7.144;2022-11-15T11:47:31;14.30;99.90
31733;DHT22;18312;51.486;7.144;2022-11-15T11:50:02;14.30;99.90
31733;DHT22;18312;51.486;7.144;2022-11-15T11:52:34;14.30;99.90
31733;DHT22;18312;51.486;7.144;2022-11-15T11:55:12;14.40;99.90
31733;DHT22;18312;51.486;7.144;2022-11-15T11:57:43;14.50;99.90
31733;DHT22;18312;51.486;7.144;2022-11-15T12:00:17;14.40;98.50
31733;DHT22;18312;51.486;7.144;2022-11-15T12:02:50;14.40;97.30
31733;DHT22;18312;51.486;7.144;2022-11-15T12:05:25;14.40;97.00
31733;DHT22;18312;51.486;7.144;2022-11-15T12:07:59;14.40;97.70
31733;DHT22;18312;51.486;7.144;2022-11-15T12:10:30;14.50;97.90
31733;DHT22;18312;51.486;7.144;2022-11-15T12:13:01;14.50;96.20
31733;DHT22;18312;51.486;7.144;2022-11-15T12:15:32;14.50;95.60
31733;DHT22;18312;51.486;7.144;2022-11-15T12:18:08;14.50;93.50
31733;DHT22;18312;51.486;7.144;2022-11-15T12:20:41;14.50;93.80
31733;DHT22;18312;51.486;7.144;2022-11-15T12:23:15;14.50;93.50
31733;DHT22;18312;51.486;7.144;2022-11-15T12:25:48;14.50;93.90
31733;DHT22;18312;51.486;7.144;2022-11-15T12:28:19;14.40;94.20
31733;DHT22;18312;51.486;7.144;2022-11-15T12:30:51;14.40;94.50
31733;DHT22;18312;51.486;7.144;2022-11-15T12:33:37;14.50;93.90
31733;DHT22;18312;51.486;7.144;2022-11-15T12:36:08;14.50;93.90
31733;DHT22;18312;51.486;7.144;2022-11-15T12:38:54;14.60;93.70
31733;DHT22;18312;51.486;7.144;2022-11-15T12:41:22;14.70;92.90
31733;DHT22;18312;51.486;7.144;2022-11-15T12:43:50;14.80;92.60
31733;DHT22;18312;51.486;7.144;2022-11-15T12:46:23;14.80;92.00
31733;DHT22;18312;51.486;7.144;2022-11-15T12:48:54;14.80;92.60
31733;DHT22;18312;51.486;7.144;2022-11-15T12:55:00;14.90;92.00
31733;DHT22;18312;51.486;7.144;2022-11-15T12:57:39;14.80;91.90
31733;DHT22;18312;51.486;7.144;2022-11-15T13:00:36;14.70;92.30
31733;DHT22;18312;51.486;7.144;2022-11-15T13:03:25;14.60;93.30
31733;DHT22;18312;51.486;7.144;2022-11-15T13:06:00;14.60;93.20
31733;DHT22;18312;51.486;7.144;2022-11-15T13:08:44;14.70;94.00
31733;DHT22;18312;51.486;7.144;2022-11-15T13:14:44;14.80;94.30
31733;DHT22;18312;51.486;7.144;2022-11-15T13:17:33;14.90;94.70
31733;DHT22;18312;51.486;7.144;2022-11-15T13:20:18;15.00;94.50
31733;DHT22;18312;51.486;7.144;2022-11-15T13:22:47;15.00;94.90
31733;DHT22;18312;51.486;7.144;2022-11-15T13:28:31;14.90;95.60
31733;DHT22;18312;51.486;7.144;2022-11-15T13:31:00;14.70;95.90
31733;DHT22;18312;51.486;7.144;2022-11-15T13:33:31;14.80;95.80
31733;DHT22;18312;51.486;7.144;2022-11-15T13:36:01;14.80;95.40
31733;DHT22;18312;51.486;7.144;2022-11-15T13:38:31;14.70;95.60
31733;DHT22;18312;51.486;7.144;2022-11-15T13:40:59;14.60;96.30
31733;DHT22;18312;51.486;7.144;2022-11-15T13:43:31;14.60;96.40
31733;DHT22;18312;51.486;7.144;2022-11-15T13:46:09;14.50;96.80
31733;DHT22;18312;51.486;7.144;2022-11-15T13:48:37;14.60;97.30
31733;DHT22;18312;51.486;7.144;2022-11-15T13:51:06;14.60;97.50
31733;DHT22;18312;51.486;7.144;2022-11-15T13:53:38;14.50;98.10
31733;DHT22;18312;51.486;7.144;2022-11-15T13:56:06;14.50;99.00
31733;DHT22;18312;51.486;7.144;2022-11-15T13:58:33;14.40;99.50
31733;DHT22;18312;51.486;7.144;2022-11-15T14:01:03;14.40;99.90
31733;DHT22;18312;51.486;7.144;2022-11-15T14:03:31;14.30;99.90
31733;DHT22;18312;51.486;7.144;2022-11-15T14:06:06;14.30;99.90
31733;DHT22;18312;51.486;7.144;2022-11-15T14:08:37;14.30;99.90
31733;DHT22;18312;51.486;7.144;2022-11-15T14:11:09;14.30;99.90
31733;DHT22;18312;51.486;7.144;2022-11-15T14:13:39;14.30;99.90
31733;DHT22;18312;51.486;7.144;2022-11-15T14:16:14;14.30;99.90
31733;DHT22;18312;51.486;7.144;2022-11-15T14:18:43;14.30;99.90
31733;DHT22;18312;51.486;7.144;2022-11-15T14:21:11;14.30;99.90
31733;DHT22;18312;51.486;7.144;2022-11-15T14:23:40;14.20;99.90
31733;DHT22;18312;51.486;7.144;2022-11-15T14:26:25;14.20;99.90
31733;DHT22;18312;51.486;7.144;2022-11-15T14:28:52;14.20;99.90
31733;DHT22;18312;51.486;7.144;2022-11-15T14:31:19;14.20;99.90
31733;DHT22;18312;51.486;7.144;2022-11-15T14:33:47;14.20;99.90
31733;DHT22;18312;51.486;7.144;2022-11-15T14:36:15;14.10;99.90
31733;DHT22;18312;51.486;7.144;2022-11-15T14:38:44;14.10;99.90
31733;DHT22;18312;51.486;7.144;2022-11-15T14:41:18;14.10;99.90
31733;DHT22;18312;51.486;7.144;2022-11-15T14:43:46;14.10;99.90
31733;DHT22;18312;51.486;7.144;2022-11-15T14:46:13;14.10;99.90
31733;DHT22;18312;51.486;7.144;2022-11-15T14:48:39;14.00;99.90
31733;DHT22;18312;51.486;7.144;2022-11-15T14:51:13;14.00;99.90
31733;DHT22;18312;51.486;7.144;2022-11-15T14:53:41;14.00;99.90
31733;DHT22;18312;51.486;7.144;2022-11-15T14:56:10;13.90;99.90
31733;DHT22;18312;51.486;7.144;2022-11-15T14:58:36;14.00;99.90
31733;DHT22;18312;51.486;7.144;2022-11-15T15:01:12;13.90;99.90
31733;DHT22;18312;51.486;7.144;2022-11-15T15:03:39;13.90;99.90
31733;DHT22;18312;51.486;7.144;2022-11-15T15:06:06;13.90;99.90
31733;DHT22;18312;51.486;7.144;2022-11-15T15:08:34;13.90;99.90
31733;DHT22;18312;51.486;7.144;2022-11-15T15:11:01;13.80;99.90
31733;DHT22;18312;51.486;7.144;2022-11-15T15:13:29;13.80;99.90
31733;DHT22;18312;51.486;7.144;2022-11-15T15:15:56;13.70;99.90
31733;DHT22;18312;51.486;7.144;2022-11-15T15:18:23;13.70;99.90
31733;DHT22;18312;51.486;7.144;2022-11-15T15:20:55;13.70;99.90
31733;DHT22;18312;51.486;7.144;2022-11-15T15:23:22;13.60;99.90
31733;DHT22;18312;51.486;7.144;2022-11-15T15:25:51;13.60;99.90
31733;DHT22;18312;51.486;7.144;2022-11-15T15:28:18;13.50;99.90
31733;DHT22;18312;51.486;7.144;2022-11-15T15:30:57;13.50;99.90
31733;DHT22;18312;51.486;7.144;2022-11-15T15:33:26;13.50;99.90
31733;DHT22;18312;51.486;7.144;2022-11-15T15:35:53;13.40;99.90
31733;DHT22;18312;51.486;7.144;2022-11-15T15:38:20;13.40;99.90
31733;DHT22;18312;51.486;7.144;2022-11-15T15:40:59;13.50;99.90
31733;DHT22;18312;51.486;7.144;2022-11-15T15:43:37;13.50;99.90
31733;DHT22;18312;51.486;7.144;2022-11-15T15:46:23;13.50;99.90
31733;DHT22;18312;51.486;7.144;2022-11-15T15:48:52;13.60;99.90
31733;DHT22;18312;51.486;7.144;2022-11-15T15:51:19;13.50;99.90
31733;DHT22;18312;51.486;7.144;2022-11-15T15:53:49;13.50;99.90
31733;DHT22;18312;51.486;7.144;2022-11-15T15:56:28;13.50;99.90
31733;DHT22;18312;51.486;7.144;2022-11-15T15:59:05;13.50;99.90
31733;DHT22;18312;51.486;7.144;2022-11-15T16:01:37;13.50;99.90
31733;DHT22;18312;51.486;7.144;2022-11-15T16:04:10;13.50;99.90